createdAt,value
2018-03-26T00:00:49.552Z,0
2018-03-26T00:01:49.291Z,0
2018-03-26T00:02:49.522Z,0
2018-03-26T00:03:49.523Z,0
2018-03-26T00:04:49.532Z,0
2018-03-26T00:05:49.495Z,0
2018-03-26T00:06:49.516Z,0
2018-03-26T00:07:49.243Z,0
2018-03-26T00:08:49.472Z,0
2018-03-26T00:09:49.219Z,0
2018-03-26T00:10:49.458Z,0
2018-03-26T00:11:49.454Z,0
2018-03-26T00:12:49.429Z,0
2018-03-26T00:13:49.416Z,0
2018-03-26T00:14:49.410Z,0
2018-03-26T00:15:48.893Z,0
2018-03-26T00:16:49.399Z,0
2018-03-26T00:17:49.384Z,0
2018-03-26T00:18:49.367Z,0
2018-03-26T00:19:49.368Z,0
2018-03-26T00:20:49.359Z,0
2018-03-26T00:21:49.129Z,0
2018-03-26T00:22:49.328Z,0
2018-03-26T00:23:49.340Z,0
2018-03-26T00:24:49.318Z,0
2018-03-26T00:25:49.311Z,0
2018-03-26T00:26:48.791Z,0
2018-03-26T00:27:49.028Z,0
2018-03-26T00:28:49.267Z,0
2018-03-26T00:29:49.259Z,0
2018-03-26T00:30:48.999Z,0
2018-03-26T00:31:49.239Z,0
2018-03-26T00:32:49.245Z,0
2018-03-26T00:33:49.219Z,0
2018-03-26T00:34:49.112Z,0
2018-03-26T00:35:48.950Z,0
2018-03-26T00:36:49.190Z,0
2018-03-26T00:37:49.180Z,0
2018-03-26T00:38:49.169Z,0
2018-03-26T00:39:48.930Z,0
2018-03-26T00:40:49.151Z,0
2018-03-26T00:41:49.147Z,0
2018-03-26T00:42:49.131Z,0
2018-03-26T00:43:48.878Z,0
2018-03-26T00:44:49.114Z,0
2018-03-26T00:45:49.117Z,0
2018-03-26T00:46:49.095Z,0
2018-03-26T00:47:49.098Z,0
2018-03-26T00:48:49.078Z,0
2018-03-26T00:49:49.080Z,0
2018-03-26T00:50:49.078Z,0
2018-03-26T00:51:49.049Z,0
2018-03-26T00:52:49.032Z,0
2018-03-26T00:53:49.040Z,0
2018-03-26T00:54:49.015Z,0
2018-03-26T00:55:48.761Z,0
2018-03-26T00:56:48.489Z,0
2018-03-26T00:57:48.482Z,0
2018-03-26T00:58:48.975Z,0
2018-03-26T00:59:48.731Z,0
2018-03-26T01:00:48.705Z,0
2018-03-26T01:01:48.442Z,0
2018-03-26T01:02:48.700Z,0
2018-03-26T01:03:48.930Z,0
2018-03-26T01:04:48.674Z,0
2018-03-26T01:05:48.663Z,0
2018-03-26T01:06:48.906Z,0
2018-03-26T01:07:48.381Z,0
2018-03-26T01:08:48.624Z,0
2018-03-26T01:09:49.125Z,0
2018-03-26T01:10:48.605Z,0
2018-03-26T01:11:48.867Z,0
2018-03-26T01:12:48.592Z,0
2018-03-26T01:13:48.848Z,0
2018-03-26T01:14:48.835Z,0
2018-03-26T01:15:48.809Z,0
2018-03-26T01:16:48.814Z,0
2018-03-26T01:17:48.535Z,0
2018-03-26T01:18:48.585Z,0
2018-03-26T01:19:48.264Z,0
2018-03-26T01:20:48.506Z,0
2018-03-26T01:21:48.244Z,0
2018-03-26T01:22:48.485Z,0
2018-03-26T01:23:48.758Z,0
2018-03-26T01:24:48.733Z,0
2018-03-26T01:25:48.459Z,0
2018-03-26T01:26:48.714Z,0
2018-03-26T01:27:48.185Z,0
2018-03-26T01:28:48.425Z,0
2018-03-26T01:29:48.425Z,0
2018-03-26T01:30:48.672Z,0
2018-03-26T01:31:48.397Z,0
2018-03-26T01:32:48.687Z,0
2018-03-26T01:33:48.377Z,0
2018-03-26T01:34:48.117Z,0
2018-03-26T01:35:48.415Z,0
2018-03-26T01:36:48.604Z,0
2018-03-26T01:37:48.344Z,0
2018-03-26T01:38:48.337Z,0
2018-03-26T01:39:48.572Z,0
2018-03-26T01:40:48.058Z,0
2018-03-26T01:41:48.548Z,0
2018-03-26T01:42:48.291Z,0
2018-03-26T01:43:48.302Z,0
2018-03-26T01:44:48.271Z,0
2018-03-26T01:45:48.257Z,0
2018-03-26T01:46:48.500Z,0
2018-03-26T01:47:48.505Z,0
2018-03-26T01:48:48.487Z,0
2018-03-26T01:49:48.525Z,0
2018-03-26T01:50:48.209Z,0
2018-03-26T01:51:48.451Z,0
2018-03-26T01:52:48.445Z,0
2018-03-26T01:53:48.495Z,0
2018-03-26T01:54:48.426Z,0
2018-03-26T01:55:48.159Z,0
2018-03-26T01:56:48.153Z,0
2018-03-26T01:57:48.142Z,0
2018-03-26T01:58:48.131Z,0
2018-03-26T01:59:48.378Z,0
2018-03-26T02:00:48.367Z,0
2018-03-26T02:01:48.359Z,0
2018-03-26T02:02:48.340Z,0
2018-03-26T02:03:48.079Z,0
2018-03-26T02:04:48.466Z,0
2018-03-26T02:05:48.314Z,0
2018-03-26T02:06:48.305Z,4
2018-03-26T02:07:48.038Z,4
2018-03-26T02:08:48.038Z,4
2018-03-26T02:09:48.272Z,4
2018-03-26T02:10:48.262Z,4
2018-03-26T02:11:48.501Z,4
2018-03-26T02:12:47.990Z,0
2018-03-26T02:13:47.472Z,0
2018-03-26T02:14:47.970Z,0
2018-03-26T02:15:48.223Z,0
2018-03-26T02:16:47.952Z,0
2018-03-26T02:17:47.952Z,0
2018-03-26T02:18:47.928Z,0
2018-03-26T02:19:47.929Z,0
2018-03-26T02:20:48.185Z,0
2018-03-26T02:21:48.162Z,0
2018-03-26T02:22:47.890Z,0
2018-03-26T02:23:47.882Z,0
2018-03-26T02:24:48.125Z,0
2018-03-26T02:25:47.606Z,0
2018-03-26T02:26:47.915Z,0
2018-03-26T02:27:47.836Z,0
2018-03-26T02:28:47.577Z,0
2018-03-26T02:29:48.073Z,0
2018-03-26T02:30:48.096Z,0
2018-03-26T02:31:48.073Z,0
2018-03-26T02:32:48.058Z,0
2018-03-26T02:33:48.043Z,0
2018-03-26T02:34:47.777Z,0
2018-03-26T02:35:48.041Z,0
2018-03-26T02:36:47.758Z,0
2018-03-26T02:37:47.755Z,0
2018-03-26T02:38:47.741Z,0
2018-03-26T02:39:48.001Z,0
2018-03-26T02:40:47.722Z,0
2018-03-26T02:41:47.979Z,0
2018-03-26T02:42:48.201Z,0
2018-03-26T02:43:47.961Z,0
2018-03-26T02:44:47.957Z,0
2018-03-26T02:45:47.943Z,0
2018-03-26T02:46:47.919Z,0
2018-03-26T02:47:47.910Z,0
2018-03-26T02:48:47.636Z,0
2018-03-26T02:49:47.377Z,0
2018-03-26T02:50:48.086Z,0
2018-03-26T02:51:47.608Z,0
2018-03-26T02:52:47.598Z,0
2018-03-26T02:53:47.582Z,0
2018-03-26T02:54:47.842Z,0
2018-03-26T02:55:47.835Z,0
2018-03-26T02:56:47.811Z,0
2018-03-26T02:57:47.540Z,0
2018-03-26T02:58:47.284Z,0
2018-03-26T02:59:47.780Z,0
2018-03-26T03:00:47.778Z,0
2018-03-26T03:01:47.510Z,0
2018-03-26T03:02:47.490Z,0
2018-03-26T03:03:47.742Z,0
2018-03-26T03:04:47.728Z,0
2018-03-26T03:05:47.722Z,0
2018-03-26T03:06:47.459Z,0
2018-03-26T03:07:47.694Z,0
2018-03-26T03:08:47.687Z,0
2018-03-26T03:09:47.670Z,0
2018-03-26T03:10:47.691Z,0
2018-03-26T03:11:47.403Z,0
2018-03-26T03:12:46.897Z,0
2018-03-26T03:13:47.884Z,0
2018-03-26T03:14:47.637Z,0
2018-03-26T03:15:47.626Z,0
2018-03-26T03:16:47.626Z,0
2018-03-26T03:17:47.589Z,0
2018-03-26T03:18:47.582Z,0
2018-03-26T03:19:47.583Z,0
2018-03-26T03:20:47.569Z,0
2018-03-26T03:21:47.564Z,0
2018-03-26T03:22:47.546Z,0
2018-03-26T03:23:47.539Z,0
2018-03-26T03:24:47.269Z,0
2018-03-26T03:25:47.258Z,0
2018-03-26T03:26:47.262Z,0
2018-03-26T03:27:46.986Z,0
2018-03-26T03:28:47.489Z,0
2018-03-26T03:29:47.474Z,0
2018-03-26T03:30:47.477Z,0
2018-03-26T03:31:47.470Z,0
2018-03-26T03:32:47.187Z,0
2018-03-26T03:33:47.178Z,0
2018-03-26T03:34:46.660Z,0
2018-03-26T03:35:47.422Z,0
2018-03-26T03:36:47.148Z,0
2018-03-26T03:37:47.397Z,0
2018-03-26T03:38:47.383Z,0
2018-03-26T03:39:47.367Z,0
2018-03-26T03:40:46.866Z,0
2018-03-26T03:41:47.354Z,0
2018-03-26T03:42:47.150Z,0
2018-03-26T03:43:47.329Z,0
2018-03-26T03:44:47.576Z,0
2018-03-26T03:45:47.310Z,0
2018-03-26T03:46:47.060Z,0
2018-03-26T03:47:47.300Z,0
2018-03-26T03:48:47.281Z,0
2018-03-26T03:49:47.271Z,0
2018-03-26T03:50:47.016Z,0
2018-03-26T03:51:47.244Z,0
2018-03-26T03:52:47.285Z,0
2018-03-26T03:53:47.236Z,0
2018-03-26T03:54:46.966Z,0
2018-03-26T03:55:46.956Z,0
2018-03-26T03:56:47.200Z,0
2018-03-26T03:57:47.239Z,0
2018-03-26T03:58:46.924Z,0
2018-03-26T03:59:47.167Z,0
2018-03-26T04:00:47.217Z,0
2018-03-26T04:01:46.897Z,0
2018-03-26T04:02:46.886Z,0
2018-03-26T04:03:47.127Z,0
2018-03-26T04:04:47.118Z,0
2018-03-26T04:05:47.109Z,0
2018-03-26T04:06:47.097Z,0
2018-03-26T04:07:46.580Z,0
2018-03-26T04:08:47.078Z,0
2018-03-26T04:09:47.065Z,0
2018-03-26T04:10:47.065Z,0
2018-03-26T04:11:47.044Z,0
2018-03-26T04:12:47.033Z,0
2018-03-26T04:13:46.771Z,0
2018-03-26T04:14:46.508Z,0
2018-03-26T04:15:46.503Z,0
2018-03-26T04:16:47.003Z,0
2018-03-26T04:17:46.993Z,0
2018-03-26T04:18:46.732Z,0
2018-03-26T04:19:46.964Z,0
2018-03-26T04:20:46.954Z,0
2018-03-26T04:21:46.710Z,0
2018-03-26T04:22:46.936Z,0
2018-03-26T04:23:46.672Z,0
2018-03-26T04:24:46.670Z,0
2018-03-26T04:25:46.711Z,4
2018-03-26T04:26:46.653Z,0
2018-03-26T04:27:46.888Z,0
2018-03-26T04:28:46.618Z,4
2018-03-26T04:29:46.609Z,0
2018-03-26T04:30:46.599Z,4
2018-03-26T04:31:46.857Z,4
2018-03-26T04:32:46.583Z,8
2018-03-26T04:33:46.572Z,4
2018-03-26T04:34:46.822Z,4
2018-03-26T04:35:46.807Z,8
2018-03-26T04:36:46.537Z,8
2018-03-26T04:37:46.535Z,8
2018-03-26T04:38:46.527Z,12
2018-03-26T04:39:46.508Z,16
2018-03-26T04:40:46.779Z,16
2018-03-26T04:41:46.904Z,16
2018-03-26T04:42:46.740Z,24
2018-03-26T04:43:46.476Z,28
2018-03-26T04:44:46.721Z,28
2018-03-26T04:45:46.706Z,32
2018-03-26T04:46:46.693Z,40
2018-03-26T04:47:46.695Z,44
2018-03-26T04:48:46.676Z,52
2018-03-26T04:49:46.661Z,56
2018-03-26T04:50:46.648Z,64
2018-03-26T04:51:46.638Z,72
2018-03-26T04:52:46.384Z,104
2018-03-26T04:53:46.369Z,124
2018-03-26T04:54:46.613Z,132
2018-03-26T04:55:46.660Z,144
2018-03-26T04:56:46.591Z,152
2018-03-26T04:57:46.576Z,164
2018-03-26T04:58:46.312Z,172
2018-03-26T04:59:46.555Z,184
2018-03-26T05:00:46.574Z,196
2018-03-26T05:01:46.535Z,212
2018-03-26T05:02:46.531Z,220
2018-03-26T05:03:46.264Z,240
2018-03-26T05:04:46.252Z,256
2018-03-26T05:05:46.504Z,272
2018-03-26T05:06:46.482Z,288
2018-03-26T05:07:46.242Z,304
2018-03-26T05:08:46.211Z,324
2018-03-26T05:09:45.949Z,344
2018-03-26T05:10:46.444Z,368
2018-03-26T05:11:46.438Z,388
2018-03-26T05:12:46.174Z,416
2018-03-26T05:13:46.165Z,440
2018-03-26T05:14:46.400Z,460
2018-03-26T05:15:46.396Z,484
2018-03-26T05:16:46.388Z,508
2018-03-26T05:17:46.372Z,536
2018-03-26T05:18:46.361Z,556
2018-03-26T05:19:46.355Z,576
2018-03-26T05:20:46.345Z,600
2018-03-26T05:21:46.080Z,624
2018-03-26T05:22:46.382Z,644
2018-03-26T05:23:45.804Z,664
2018-03-26T05:24:45.798Z,692
2018-03-26T05:25:46.290Z,708
2018-03-26T05:26:46.287Z,732
2018-03-26T05:27:46.032Z,760
2018-03-26T05:28:46.268Z,788
2018-03-26T05:29:46.255Z,824
2018-03-26T05:30:46.251Z,856
2018-03-26T05:31:46.256Z,884
2018-03-26T05:32:45.973Z,912
2018-03-26T05:33:45.965Z,936
2018-03-26T05:34:45.950Z,968
2018-03-26T05:35:45.943Z,996
2018-03-26T05:36:45.678Z,1020
2018-03-26T05:37:46.171Z,1052
2018-03-26T05:38:45.912Z,1088
2018-03-26T05:39:46.155Z,1112
2018-03-26T05:40:45.886Z,1136
2018-03-26T05:41:45.620Z,1164
2018-03-26T05:42:45.864Z,1188
2018-03-26T05:43:46.106Z,1212
2018-03-26T05:44:46.100Z,1232
2018-03-26T05:45:45.591Z,1248
2018-03-26T05:46:45.828Z,1260
2018-03-26T05:47:45.821Z,1288
2018-03-26T05:48:46.083Z,1312
2018-03-26T05:49:46.296Z,1344
2018-03-26T05:50:46.062Z,1372
2018-03-26T05:51:46.040Z,1404
2018-03-26T05:52:45.761Z,1440
2018-03-26T05:53:46.009Z,1472
2018-03-26T05:54:45.754Z,1500
2018-03-26T05:55:45.991Z,1528
2018-03-26T05:56:45.723Z,1560
2018-03-26T05:57:45.738Z,1588
2018-03-26T05:58:45.958Z,1636
2018-03-26T05:59:45.950Z,1692
2018-03-26T06:00:45.956Z,1756
2018-03-26T06:01:45.678Z,1816
2018-03-26T06:02:45.934Z,1876
2018-03-26T06:03:45.404Z,1952
2018-03-26T06:04:45.915Z,2032
2018-03-26T06:05:45.889Z,2088
2018-03-26T06:06:45.635Z,2128
2018-03-26T06:07:45.112Z,2140
2018-03-26T06:08:45.861Z,2148
2018-03-26T06:09:45.863Z,2164
2018-03-26T06:10:45.349Z,2204
2018-03-26T06:11:45.833Z,2260
2018-03-26T06:12:45.573Z,2328
2018-03-26T06:13:45.815Z,2392
2018-03-26T06:14:45.799Z,2452
2018-03-26T06:15:45.538Z,2532
2018-03-26T06:16:45.538Z,2584
2018-03-26T06:17:45.797Z,2668
2018-03-26T06:18:45.586Z,2772
2018-03-26T06:19:45.614Z,2904
2018-03-26T06:20:45.889Z,3032
2018-03-26T06:21:45.561Z,3136
2018-03-26T06:22:45.480Z,3224
2018-03-26T06:23:45.489Z,3224
2018-03-26T06:24:45.523Z,3192
2018-03-26T06:25:45.233Z,3152
2018-03-26T06:26:45.516Z,3156
2018-03-26T06:27:45.442Z,3204
2018-03-26T06:28:45.412Z,3276
2018-03-26T06:29:45.412Z,3372
2018-03-26T06:30:45.913Z,3488
2018-03-26T06:31:45.397Z,3636
2018-03-26T06:32:45.376Z,3816
2018-03-26T06:33:45.115Z,3940
2018-03-26T06:34:45.403Z,4052
2018-03-26T06:35:45.095Z,4184
2018-03-26T06:36:45.610Z,4316
2018-03-26T06:37:45.673Z,4424
2018-03-26T06:38:45.066Z,4516
2018-03-26T06:39:45.581Z,4564
2018-03-26T06:40:45.299Z,4592
2018-03-26T06:41:45.569Z,4576
2018-03-26T06:42:45.314Z,4516
2018-03-26T06:43:45.299Z,4488
2018-03-26T06:44:45.538Z,4504
2018-03-26T06:45:45.262Z,4520
2018-03-26T06:46:45.002Z,4540
2018-03-26T06:47:45.337Z,4576
2018-03-26T06:48:44.983Z,4556
2018-03-26T06:49:45.338Z,4460
2018-03-26T06:50:45.474Z,4400
2018-03-26T06:51:45.490Z,4424
2018-03-26T06:52:44.950Z,4468
2018-03-26T06:53:45.180Z,4520
2018-03-26T06:54:45.191Z,4548
2018-03-26T06:55:44.915Z,4540
2018-03-26T06:56:45.559Z,4540
2018-03-26T06:57:45.511Z,4532
2018-03-26T06:58:45.429Z,4472
2018-03-26T06:59:45.388Z,4392
2018-03-26T07:00:45.155Z,4356
2018-03-26T07:01:45.415Z,4324
2018-03-26T07:02:45.412Z,4316
2018-03-26T07:03:45.106Z,4316
2018-03-26T07:04:45.374Z,4332
2018-03-26T07:05:45.364Z,4352
2018-03-26T07:06:45.119Z,4416
2018-03-26T07:07:45.122Z,4488
2018-03-26T07:08:45.073Z,4572
2018-03-26T07:09:44.786Z,4676
2018-03-26T07:10:44.789Z,4768
2018-03-26T07:11:45.282Z,4840
2018-03-26T07:12:45.275Z,4928
2018-03-26T07:13:45.012Z,4984
2018-03-26T07:14:45.030Z,5056
2018-03-26T07:15:45.250Z,5136
2018-03-26T07:16:45.251Z,5220
2018-03-26T07:17:44.730Z,5284
2018-03-26T07:18:44.457Z,5360
2018-03-26T07:19:44.983Z,5400
2018-03-26T07:20:44.717Z,5400
2018-03-26T07:21:45.094Z,5416
2018-03-26T07:22:45.217Z,5448
2018-03-26T07:23:45.243Z,5484
2018-03-26T07:24:44.915Z,5520
2018-03-26T07:25:44.926Z,5580
2018-03-26T07:26:44.648Z,5664
2018-03-26T07:27:44.909Z,5744
2018-03-26T07:28:44.882Z,5820
2018-03-26T07:29:44.881Z,5868
2018-03-26T07:30:45.123Z,5896
2018-03-26T07:31:45.132Z,5940
2018-03-26T07:32:44.865Z,6020
2018-03-26T07:33:46.207Z,6132
2018-03-26T07:34:44.869Z,6260
2018-03-26T07:35:44.599Z,6388
2018-03-26T07:36:44.821Z,6528
2018-03-26T07:37:45.074Z,6660
2018-03-26T07:38:44.803Z,6772
2018-03-26T07:39:44.793Z,6856
2018-03-26T07:40:45.040Z,6960
2018-03-26T07:41:45.184Z,7084
2018-03-26T07:42:44.769Z,7236
2018-03-26T07:43:44.773Z,7420
2018-03-26T07:44:45.011Z,7632
2018-03-26T07:45:44.532Z,7840
2018-03-26T07:46:45.018Z,8024
2018-03-26T07:47:45.000Z,8176
2018-03-26T07:48:44.985Z,8304
2018-03-26T07:49:44.716Z,8392
2018-03-26T07:50:44.711Z,8436
2018-03-26T07:51:44.950Z,8480
2018-03-26T07:52:44.689Z,8528
2018-03-26T07:53:44.937Z,8612
2018-03-26T07:54:44.680Z,8748
2018-03-26T07:55:44.439Z,8972
2018-03-26T07:56:44.661Z,9260
2018-03-26T07:57:44.942Z,9620
2018-03-26T07:58:45.105Z,9988
2018-03-26T07:59:44.891Z,10384
2018-03-26T08:00:44.769Z,10696
2018-03-26T08:01:44.890Z,10876
2018-03-26T08:02:44.636Z,11000
2018-03-26T08:03:44.620Z,11096
2018-03-26T08:04:44.602Z,11272
2018-03-26T08:05:44.590Z,11404
2018-03-26T08:06:44.871Z,11484
2018-03-26T08:07:44.877Z,11588
2018-03-26T08:08:44.626Z,11708
2018-03-26T08:09:44.322Z,11684
2018-03-26T08:10:44.630Z,11672
2018-03-26T08:11:44.816Z,11660
2018-03-26T08:12:44.823Z,11652
2018-03-26T08:13:44.567Z,11656
2018-03-26T08:14:44.557Z,11664
2018-03-26T08:15:44.721Z,11708
2018-03-26T08:16:44.542Z,11836
2018-03-26T08:17:44.511Z,12004
2018-03-26T08:18:43.996Z,12112
2018-03-26T08:19:44.753Z,12176
2018-03-26T08:20:44.747Z,12128
2018-03-26T08:21:44.487Z,12036
2018-03-26T08:22:44.483Z,11996
2018-03-26T08:23:44.228Z,11964
2018-03-26T08:24:44.466Z,11932
2018-03-26T08:25:44.472Z,11896
2018-03-26T08:26:44.211Z,11816
2018-03-26T08:27:44.701Z,11688
2018-03-26T08:28:44.446Z,11556
2018-03-26T08:29:44.460Z,11376
2018-03-26T08:30:44.458Z,11212
2018-03-26T08:31:44.168Z,11064
2018-03-26T08:32:44.707Z,10936
2018-03-26T08:33:44.410Z,10844
2018-03-26T08:34:44.420Z,10804
2018-03-26T08:35:44.403Z,10776
2018-03-26T08:36:44.397Z,10792
2018-03-26T08:37:44.641Z,10844
2018-03-26T08:38:44.722Z,10948
2018-03-26T08:39:44.693Z,11056
2018-03-26T08:40:44.647Z,11112
2018-03-26T08:41:44.114Z,11132
2018-03-26T08:42:44.624Z,11120
2018-03-26T08:43:44.641Z,11024
2018-03-26T08:44:44.611Z,10984
2018-03-26T08:45:44.621Z,11052
2018-03-26T08:46:44.346Z,11220
2018-03-26T08:47:44.593Z,11348
2018-03-26T08:48:44.590Z,11364
2018-03-26T08:49:44.442Z,11304
2018-03-26T08:50:44.585Z,11256
2018-03-26T08:51:44.576Z,11244
2018-03-26T08:52:44.568Z,11312
2018-03-26T08:53:44.048Z,11424
2018-03-26T08:54:44.539Z,11544
2018-03-26T08:55:44.572Z,11616
2018-03-26T08:56:44.805Z,11692
2018-03-26T08:57:44.276Z,11764
2018-03-26T08:58:44.302Z,11868
2018-03-26T08:59:44.513Z,12032
2018-03-26T09:00:44.553Z,12188
2018-03-26T09:01:44.532Z,12312
2018-03-26T09:02:44.525Z,12424
2018-03-26T09:03:43.988Z,12556
2018-03-26T09:04:44.240Z,12672
2018-03-26T09:05:44.529Z,12744
2018-03-26T09:06:44.480Z,12676
2018-03-26T09:07:44.527Z,12588
2018-03-26T09:08:44.491Z,12516
2018-03-26T09:09:44.469Z,12460
2018-03-26T09:10:44.470Z,12376
2018-03-26T09:11:44.196Z,12256
2018-03-26T09:12:44.446Z,12092
2018-03-26T09:13:44.447Z,11944
2018-03-26T09:14:44.181Z,11788
2018-03-26T09:15:44.433Z,11656
2018-03-26T09:16:44.459Z,11556
2018-03-26T09:17:44.448Z,11532
2018-03-26T09:18:44.169Z,11556
2018-03-26T09:19:44.159Z,11588
2018-03-26T09:20:44.156Z,11584
2018-03-26T09:21:44.413Z,11532
2018-03-26T09:22:44.412Z,11456
2018-03-26T09:23:44.399Z,11368
2018-03-26T09:24:44.385Z,11296
2018-03-26T09:25:44.382Z,11260
2018-03-26T09:26:44.126Z,11232
2018-03-26T09:27:44.386Z,11204
2018-03-26T09:28:44.369Z,11208
2018-03-26T09:29:44.355Z,11192
2018-03-26T09:30:44.363Z,11196
2018-03-26T09:31:44.351Z,11204
2018-03-26T09:32:44.342Z,11256
2018-03-26T09:33:44.342Z,11296
2018-03-26T09:34:44.132Z,11264
2018-03-26T09:35:44.084Z,11228
2018-03-26T09:36:44.067Z,11252
2018-03-26T09:37:44.326Z,11352
2018-03-26T09:38:44.336Z,11488
2018-03-26T09:39:44.317Z,11660
2018-03-26T09:40:44.054Z,11848
2018-03-26T09:41:44.321Z,12016
2018-03-26T09:42:44.329Z,12144
2018-03-26T09:43:44.082Z,12240
2018-03-26T09:44:44.337Z,12312
2018-03-26T09:45:44.301Z,12388
2018-03-26T09:46:44.045Z,12472
2018-03-26T09:47:44.083Z,12548
2018-03-26T09:48:44.008Z,12552
2018-03-26T09:49:44.055Z,12500
2018-03-26T09:50:44.267Z,12436
2018-03-26T09:51:44.279Z,12388
2018-03-26T09:52:44.297Z,12340
2018-03-26T09:53:44.004Z,12392
2018-03-26T09:54:43.994Z,12500
2018-03-26T09:55:44.260Z,12608
2018-03-26T09:56:43.979Z,12700
2018-03-26T09:57:44.231Z,12768
2018-03-26T09:58:44.271Z,12864
2018-03-26T09:59:43.680Z,12984
2018-03-26T10:00:44.184Z,13052
2018-03-26T10:01:43.922Z,13148
2018-03-26T10:02:44.198Z,13272
2018-03-26T10:03:44.243Z,13344
2018-03-26T10:04:43.907Z,13360
2018-03-26T10:05:44.168Z,13336
2018-03-26T10:06:44.164Z,13360
2018-03-26T10:07:43.645Z,13456
2018-03-26T10:08:43.647Z,13644
2018-03-26T10:09:44.132Z,13868
2018-03-26T10:10:44.140Z,14088
2018-03-26T10:11:43.879Z,14216
2018-03-26T10:12:43.867Z,14176
2018-03-26T10:13:44.125Z,14124
2018-03-26T10:14:44.140Z,14188
2018-03-26T10:15:43.905Z,14344
2018-03-26T10:16:44.568Z,14612
2018-03-26T10:17:44.171Z,14944
2018-03-26T10:18:44.110Z,15336
2018-03-26T10:19:44.419Z,15656
2018-03-26T10:20:43.838Z,15784
2018-03-26T10:21:43.821Z,15704
2018-03-26T10:22:44.068Z,15464
2018-03-26T10:23:44.077Z,15296
2018-03-26T10:24:44.091Z,15224
2018-03-26T10:25:44.086Z,15228
2018-03-26T10:26:43.549Z,15336
2018-03-26T10:27:43.794Z,15484
2018-03-26T10:28:44.247Z,15652
2018-03-26T10:29:44.302Z,16032
2018-03-26T10:30:44.029Z,16288
2018-03-26T10:31:44.035Z,16512
2018-03-26T10:32:44.026Z,16672
2018-03-26T10:33:43.504Z,16832
2018-03-26T10:34:43.755Z,16864
2018-03-26T10:35:43.763Z,16832
2018-03-26T10:36:44.019Z,16704
2018-03-26T10:37:43.517Z,16608
2018-03-26T10:38:43.798Z,16512
2018-03-26T10:39:43.759Z,16448
2018-03-26T10:40:44.025Z,16352
2018-03-26T10:41:44.300Z,16256
2018-03-26T10:42:43.517Z,16064
2018-03-26T10:43:44.074Z,15904
2018-03-26T10:44:43.818Z,15604
2018-03-26T10:45:43.761Z,15416
2018-03-26T10:46:43.731Z,15228
2018-03-26T10:47:43.959Z,15008
2018-03-26T10:48:43.718Z,14764
2018-03-26T10:49:44.035Z,14460
2018-03-26T10:50:43.686Z,14148
2018-03-26T10:51:43.981Z,13864
2018-03-26T10:52:43.736Z,13688
2018-03-26T10:53:44.000Z,13636
2018-03-26T10:54:43.994Z,13684
2018-03-26T10:55:44.004Z,13760
2018-03-26T10:56:43.667Z,13792
2018-03-26T10:57:43.914Z,13776
2018-03-26T10:58:43.920Z,13748
2018-03-26T10:59:43.929Z,13752
2018-03-26T11:00:43.641Z,13748
2018-03-26T11:01:43.898Z,13708
2018-03-26T11:02:43.910Z,13684
2018-03-26T11:03:43.895Z,13680
2018-03-26T11:04:43.401Z,13732
2018-03-26T11:05:43.956Z,13840
2018-03-26T11:06:44.160Z,14012
2018-03-26T11:07:43.643Z,14168
2018-03-26T11:08:43.398Z,14332
2018-03-26T11:09:43.871Z,14536
2018-03-26T11:10:43.979Z,14740
2018-03-26T11:11:43.910Z,14892
2018-03-26T11:12:43.878Z,14992
2018-03-26T11:13:43.840Z,15092
2018-03-26T11:14:43.602Z,15156
2018-03-26T11:15:43.863Z,15216
2018-03-26T11:16:43.858Z,15292
2018-03-26T11:17:43.632Z,15340
2018-03-26T11:18:43.571Z,15388
2018-03-26T11:19:43.582Z,15400
2018-03-26T11:20:43.411Z,15384
2018-03-26T11:21:43.592Z,15368
2018-03-26T11:22:43.557Z,15384
2018-03-26T11:23:43.872Z,15456
2018-03-26T11:24:43.557Z,15552
2018-03-26T11:25:43.316Z,15572
2018-03-26T11:26:43.851Z,15496
2018-03-26T11:27:43.545Z,15324
2018-03-26T11:28:43.788Z,15084
2018-03-26T11:29:43.772Z,14880
2018-03-26T11:30:43.770Z,14744
2018-03-26T11:31:43.522Z,14608
2018-03-26T11:32:43.001Z,14440
2018-03-26T11:33:43.511Z,14264
2018-03-26T11:34:43.769Z,14052
2018-03-26T11:35:43.502Z,13880
2018-03-26T11:36:43.523Z,13792
2018-03-26T11:37:43.238Z,13740
2018-03-26T11:38:43.752Z,13656
2018-03-26T11:39:43.480Z,13496
2018-03-26T11:40:43.767Z,13276
2018-03-26T11:41:43.268Z,12992
2018-03-26T11:42:43.755Z,12644
2018-03-26T11:43:43.732Z,12324
2018-03-26T11:44:43.819Z,12048
2018-03-26T11:45:43.788Z,11832
2018-03-26T11:46:43.793Z,11700
2018-03-26T11:47:43.194Z,11632
2018-03-26T11:48:43.681Z,11604
2018-03-26T11:49:43.844Z,11624
2018-03-26T11:50:43.430Z,11664
2018-03-26T11:51:43.672Z,11716
2018-03-26T11:52:43.693Z,11772
2018-03-26T11:53:43.704Z,11808
2018-03-26T11:54:43.166Z,11816
2018-03-26T11:55:43.417Z,11820
2018-03-26T11:56:43.653Z,11824
2018-03-26T11:57:43.660Z,11792
2018-03-26T11:58:43.656Z,11692
2018-03-26T11:59:43.632Z,11544
2018-03-26T12:00:43.637Z,11360
2018-03-26T12:01:43.408Z,11160
2018-03-26T12:02:43.643Z,10948
2018-03-26T12:03:43.423Z,10744
2018-03-26T12:04:43.620Z,10516
2018-03-26T12:05:43.389Z,10316
2018-03-26T12:06:43.611Z,10216
2018-03-26T12:07:43.609Z,10248
2018-03-26T12:08:43.598Z,10220
2018-03-26T12:09:43.075Z,10048
2018-03-26T12:10:43.344Z,9804
2018-03-26T12:11:43.573Z,9420
2018-03-26T12:12:43.311Z,9008
2018-03-26T12:13:43.625Z,8660
2018-03-26T12:14:43.411Z,8408
2018-03-26T12:15:43.092Z,8156
2018-03-26T12:16:43.565Z,7964
2018-03-26T12:17:43.292Z,8080
2018-03-26T12:18:43.024Z,8276
2018-03-26T12:19:43.523Z,8444
2018-03-26T12:20:43.023Z,8596
2018-03-26T12:21:43.265Z,8820
2018-03-26T12:22:43.508Z,9132
2018-03-26T12:23:43.532Z,9444
2018-03-26T12:24:43.518Z,9608
2018-03-26T12:25:43.272Z,9408
2018-03-26T12:26:43.247Z,8860
2018-03-26T12:27:43.502Z,8268
2018-03-26T12:28:43.476Z,7816
2018-03-26T12:29:43.479Z,7688
2018-03-26T12:30:43.477Z,7788
2018-03-26T12:31:43.464Z,8120
2018-03-26T12:32:43.468Z,8696
2018-03-26T12:33:42.961Z,9056
2018-03-26T12:34:42.945Z,9140
2018-03-26T12:35:43.472Z,9324
2018-03-26T12:36:43.418Z,9804
2018-03-26T12:37:43.195Z,10416
2018-03-26T12:38:43.173Z,10632
2018-03-26T12:39:42.965Z,10052
2018-03-26T12:40:43.201Z,8688
2018-03-26T12:41:42.896Z,7316
2018-03-26T12:42:42.893Z,6700
2018-03-26T12:43:43.435Z,6844
2018-03-26T12:44:42.898Z,7432
2018-03-26T12:45:43.166Z,7988
2018-03-26T12:46:43.126Z,8412
2018-03-26T12:47:43.130Z,9104
2018-03-26T12:48:43.370Z,9752
2018-03-26T12:49:43.430Z,10068
2018-03-26T12:50:43.139Z,10124
2018-03-26T12:51:43.344Z,10172
2018-03-26T12:52:43.360Z,10420
2018-03-26T12:53:43.334Z,11052
2018-03-26T12:54:43.427Z,11880
2018-03-26T12:55:42.819Z,12288
2018-03-26T12:56:43.322Z,12476
2018-03-26T12:57:43.302Z,12760
2018-03-26T12:58:43.476Z,12632
2018-03-26T12:59:43.326Z,11412
2018-03-26T13:00:43.033Z,9944
2018-03-26T13:01:43.019Z,9252
2018-03-26T13:02:42.763Z,8808
2018-03-26T13:03:43.276Z,8380
2018-03-26T13:04:43.027Z,7992
2018-03-26T13:05:43.032Z,7656
2018-03-26T13:06:42.996Z,7256
2018-03-26T13:07:43.240Z,7240
2018-03-26T13:08:42.972Z,7684
2018-03-26T13:09:42.994Z,7976
2018-03-26T13:10:42.966Z,7604
2018-03-26T13:11:43.231Z,6892
2018-03-26T13:12:42.958Z,5636
2018-03-26T13:13:43.007Z,4316
2018-03-26T13:14:43.026Z,3768
2018-03-26T13:15:42.907Z,3512
2018-03-26T13:16:42.976Z,3276
2018-03-26T13:17:42.970Z,3108
2018-03-26T13:18:43.484Z,2964
2018-03-26T13:19:42.945Z,3008
2018-03-26T13:20:43.213Z,3280
2018-03-26T13:21:43.175Z,3556
2018-03-26T13:22:42.965Z,3808
2018-03-26T13:23:43.127Z,4680
2018-03-26T13:24:43.193Z,5484
2018-03-26T13:25:43.138Z,5964
2018-03-26T13:26:42.878Z,6196
2018-03-26T13:27:42.876Z,6240
2018-03-26T13:28:43.139Z,6096
2018-03-26T13:29:43.144Z,5560
2018-03-26T13:30:42.853Z,4900
2018-03-26T13:31:42.553Z,4384
2018-03-26T13:32:42.809Z,3812
2018-03-26T13:33:43.059Z,3212
2018-03-26T13:34:42.788Z,2876
2018-03-26T13:35:43.031Z,2936
2018-03-26T13:36:42.787Z,3164
2018-03-26T13:37:42.778Z,3128
2018-03-26T13:38:42.757Z,2956
2018-03-26T13:39:43.002Z,3016